Time;durP1;ratioP1;P1;durP2;ratioP2;P2;SDS_P1;SDS_P2;PMS_P1;PMS_P2;Temp;Humidity;BMP_temperature;BMP_pressure;BME280_temperature;BME280_humidity;BME280_pressure;Samples;Min_cycle;Max_cycle;Signal;HPM_P1;HPM_P2
2022/11/07 00:00:59;;;;;;;7.18;3.47;;;12.40;94.70;;;;;;5091374;28;20052;-72
2022/11/07 00:03:25;;;;;;;6.53;3.70;;;12.40;94.60;;;;;;5073147;28;20024;-72
2022/11/07 00:05:53;;;;;;;6.20;3.03;;;12.30;94.80;;;;;;5091718;28;20020;-72
2022/11/07 00:08:30;;;;;;;4.88;2.72;;;12.30;94.90;;;;;;5091239;28;20049;-73
2022/11/07 00:10:56;;;;;;;6.88;3.38;;;12.30;94.80;;;;;;5073365;28;20103;-70
2022/11/07 00:13:22;;;;;;;4.05;2.70;;;12.40;94.80;;;;;;5090993;28;20044;-72
2022/11/07 00:15:48;;;;;;;4.47;2.72;;;12.40;94.80;;;;;;5091052;28;20582;-72
2022/11/07 00:18:14;;;;;;;5.25;2.60;;;12.40;94.60;;;;;;5090975;28;20028;-72
2022/11/07 00:20:39;;;;;;;5.60;2.65;;;12.40;94.70;;;;;;5090313;28;20024;-73
2022/11/07 00:23:05;;;;;;;5.45;2.85;;;12.50;94.80;;;;;;5073024;28;20039;-73
2022/11/07 00:25:31;;;;;;;5.93;2.70;;;12.50;94.70;;;;;;5090783;28;20039;-72
2022/11/07 00:27:56;;;;;;;4.45;2.47;;;12.60;94.70;;;;;;5090919;28;20035;-72
2022/11/07 00:30:22;;;;;;;6.25;2.47;;;12.60;94.80;;;;;;5090728;28;20036;-71
2022/11/07 00:32:48;;;;;;;4.50;2.22;;;12.60;94.70;;;;;;5091196;28;20031;-72
2022/11/07 00:35:13;;;;;;;4.35;2.40;;;12.60;94.90;;;;;;5091081;28;20106;-73
2022/11/07 00:37:39;;;;;;;3.72;2.13;;;12.60;94.60;;;;;;5090723;28;20024;-73
2022/11/07 00:40:05;;;;;;;3.88;2.28;;;12.70;94.60;;;;;;5090740;28;20416;-73
2022/11/07 00:42:31;;;;;;;2.63;2.05;;;12.70;94.60;;;;;;5090728;28;20492;-72
2022/11/07 00:44:56;;;;;;;3.22;1.90;;;12.80;94.60;;;;;;5091286;28;20028;-72
2022/11/07 00:47:22;;;;;;;3.30;2.20;;;12.70;94.70;;;;;;5094942;28;20060;-72
2022/11/07 00:49:48;;;;;;;7.07;2.60;;;12.70;94.70;;;;;;5094974;28;20089;-73
2022/11/07 00:52:13;;;;;;;3.47;2.15;;;12.70;94.80;;;;;;5094765;28;20498;-73
2022/11/07 00:54:40;;;;;;;6.32;2.25;;;12.70;94.80;;;;;;5094628;28;20043;-72
2022/11/07 00:57:05;;;;;;;3.47;2.00;;;12.70;94.70;;;;;;5094667;28;20024;-73
2022/11/07 00:59:31;;;;;;;4.60;2.03;;;12.80;94.80;;;;;;5095203;28;20349;-71
2022/11/07 01:01:56;;;;;;;9.60;2.17;;;12.80;94.70;;;;;;5094811;28;20135;-72
2022/11/07 01:07:06;;;;;;;3.10;2.30;;;12.80;94.70;;;;;;5094675;28;20111;-72
2022/11/07 01:09:32;;;;;;;3.05;1.75;;;12.80;94.80;;;;;;5094859;28;20123;-73
2022/11/07 01:11:57;;;;;;;3.78;2.17;;;12.80;94.80;;;;;;5094251;28;20458;-73
2022/11/07 01:14:23;;;;;;;8.35;2.20;;;12.80;94.80;;;;;;5094839;28;20054;-73
2022/11/07 01:16:50;;;;;;;3.58;1.60;;;12.80;94.90;;;;;;5094300;28;20077;-72
2022/11/07 01:19:16;;;;;;;11.40;2.08;;;12.80;94.80;;;;;;5094490;28;20028;-72
2022/11/07 01:21:42;;;;;;;2.55;1.60;;;12.90;94.80;;;;;;5094672;28;20020;-73
2022/11/07 01:24:10;;;;;;;4.40;2.00;;;12.80;94.80;;;;;;5094644;28;20049;-72
2022/11/07 01:26:36;;;;;;;8.30;2.03;;;12.80;94.80;;;;;;5094957;28;20105;-72
2022/11/07 01:29:03;;;;;;;3.28;1.73;;;12.80;94.80;;;;;;5094220;28;20036;-71
2022/11/07 01:31:30;;;;;;;2.03;1.70;;;12.90;94.90;;;;;;5076136;28;20028;-72
2022/11/07 01:33:59;;;;;;;3.10;1.52;;;12.90;94.90;;;;;;5093881;28;20036;-71
2022/11/07 01:36:25;;;;;;;4.55;1.75;;;12.90;94.90;;;;;;5094032;28;20058;-72
2022/11/07 01:38:51;;;;;;;6.05;1.92;;;12.90;94.80;;;;;;5095051;28;20032;-73
2022/11/07 01:41:30;;;;;;;5.50;1.50;;;12.90;95.10;;;;;;5094175;28;20047;-72
2022/11/07 01:44:19;;;;;;;4.28;2.03;;;12.90;95.00;;;;;;5094573;28;20052;-73
2022/11/07 01:46:46;;;;;;;2.75;1.52;;;12.90;95.00;;;;;;5094256;28;20032;-72
2022/11/07 01:49:14;;;;;;;5.03;2.00;;;12.90;95.00;;;;;;5094193;28;20024;-73
2022/11/07 01:52:07;;;;;;;2.45;1.77;;;12.90;95.00;;;;;;5094265;28;20479;-73
2022/11/07 01:54:53;;;;;;;4.90;1.80;;;12.90;95.00;;;;;;5082884;28;20056;-72
2022/11/07 01:57:29;;;;;;;2.63;1.75;;;13.00;95.10;;;;;;5093552;28;20028;-72
2022/11/07 01:59:59;;;;;;;6.57;2.60;;;12.90;95.20;;;;;;5094377;28;20081;-72
2022/11/07 02:02:27;;;;;;;6.95;2.92;;;13.00;95.10;;;;;;5077861;28;20047;-72
2022/11/07 02:04:55;;;;;;;6.90;2.72;;;13.00;95.10;;;;;;5098416;28;20075;-71
2022/11/07 02:07:22;;;;;;;6.10;2.47;;;13.00;95.10;;;;;;5094359;28;20051;-71
2022/11/07 02:09:53;;;;;;;4.25;2.00;;;13.00;95.10;;;;;;5093946;28;20089;-71
2022/11/07 02:12:19;;;;;;;5.65;1.70;;;13.00;95.20;;;;;;5090374;28;20039;-72
2022/11/07 02:14:45;;;;;;;4.00;1.42;;;13.00;95.30;;;;;;5073368;28;20059;-72
2022/11/07 02:17:12;;;;;;;6.50;1.40;;;13.00;95.30;;;;;;5074455;28;20037;-72
2022/11/07 02:19:52;;;;;;;3.42;1.33;;;13.00;95.20;;;;;;5073495;28;20408;-71
2022/11/07 02:22:40;;;;;;;5.40;1.92;;;13.10;95.20;;;;;;5072970;28;20231;-72
2022/11/07 02:25:09;;;;;;;4.38;1.23;;;13.00;95.20;;;;;;5071772;28;20025;-72
2022/11/07 02:27:36;;;;;;;4.13;1.45;;;13.10;95.40;;;;;;5073491;28;20020;-73
2022/11/07 02:30:10;;;;;;;3.05;1.67;;;13.10;95.30;;;;;;5071670;28;20093;-72
2022/11/07 02:32:37;;;;;;;4.50;1.50;;;13.10;95.30;;;;;;5073436;28;20013;-71
2022/11/07 02:35:26;;;;;;;4.25;1.40;;;13.10;95.30;;;;;;5076966;28;20036;-72
2022/11/07 02:37:53;;;;;;;3.38;1.50;;;13.10;95.30;;;;;;5113134;27;20031;-72
2022/11/07 02:40:20;;;;;;;4.95;1.33;;;13.10;95.30;;;;;;5111973;28;20031;-71
2022/11/07 02:42:46;;;;;;;4.30;1.30;;;13.00;95.40;;;;;;5113283;27;20039;-73
2022/11/07 02:45:16;;;;;;;2.50;1.63;;;13.10;95.40;;;;;;5112264;27;20104;-73
2022/11/07 02:47:42;;;;;;;5.05;1.20;;;13.10;95.40;;;;;;5112319;28;20138;-71
2022/11/07 02:50:09;;;;;;;6.03;1.27;;;13.10;95.40;;;;;;5113221;27;20422;-72
2022/11/07 02:52:36;;;;;;;2.97;1.13;;;13.10;95.50;;;;;;5113229;27;20484;-72
2022/11/07 02:55:02;;;;;;;5.05;1.48;;;13.00;95.50;;;;;;5112922;27;20062;-71
2022/11/07 02:57:28;;;;;;;4.90;1.50;;;13.10;95.40;;;;;;5112915;27;20039;-73
2022/11/07 02:59:53;;;;;;;2.70;1.15;;;13.10;95.50;;;;;;5112602;28;20081;-72
2022/11/07 03:02:19;;;;;;;2.90;1.50;;;13.10;95.40;;;;;;5112715;27;20047;-73
2022/11/07 03:04:44;;;;;;;5.78;1.60;;;13.20;95.50;;;;;;5112619;27;20058;-71
2022/11/07 03:07:10;;;;;;;4.25;1.88;;;13.20;95.30;;;;;;5111756;28;20031;-73
2022/11/07 03:09:36;;;;;;;4.32;1.40;;;13.20;95.40;;;;;;5112683;27;20027;-73
2022/11/07 03:12:01;;;;;;;3.95;1.48;;;13.20;95.80;;;;;;5117898;27;20108;-72
2022/11/07 03:14:27;;;;;;;4.68;1.35;;;13.20;95.50;;;;;;5115582;27;20535;-72
2022/11/07 03:16:52;;;;;;;2.97;1.40;;;13.20;95.40;;;;;;5133509;27;20027;-71
2022/11/07 03:19:18;;;;;;;3.72;1.40;;;13.10;95.50;;;;;;5133148;27;20115;-71
2022/11/07 03:21:44;;;;;;;2.85;1.20;;;13.10;95.50;;;;;;5133298;27;20064;-71
2022/11/07 03:24:09;;;;;;;2.08;1.27;;;13.20;95.50;;;;;;5132937;27;20042;-71
2022/11/07 03:26:35;;;;;;;3.15;1.10;;;13.20;95.60;;;;;;5115246;27;20015;-71
2022/11/07 03:29:01;;;;;;;3.47;1.77;;;13.10;95.60;;;;;;5114803;27;20544;-72
2022/11/07 03:31:26;;;;;;;3.67;1.45;;;13.10;95.70;;;;;;5132657;27;20042;-71
2022/11/07 03:33:52;;;;;;;3.83;1.42;;;13.10;95.70;;;;;;5114738;27;20041;-72
2022/11/07 03:36:18;;;;;;;3.55;1.38;;;13.10;95.80;;;;;;5132464;27;20039;-72
2022/11/07 03:38:43;;;;;;;3.95;1.60;;;13.10;96.00;;;;;;5133016;27;20456;-71
2022/11/07 03:41:15;;;;;;;7.53;1.13;;;13.00;96.00;;;;;;5132838;27;20031;-73
2022/11/07 03:43:45;;;;;;;4.45;1.08;;;13.10;95.90;;;;;;5132586;27;20051;-74
2022/11/07 03:46:12;;;;;;;3.25;1.25;;;13.10;95.90;;;;;;5114194;27;20028;-72
2022/11/07 03:48:37;;;;;;;7.35;1.50;;;13.10;95.80;;;;;;5113368;27;20080;-72
2022/11/07 03:51:04;;;;;;;2.70;1.10;;;13.20;95.80;;;;;;5091602;28;20024;-73
2022/11/07 03:53:30;;;;;;;5.00;1.50;;;13.20;95.70;;;;;;5073920;28;20024;-72
2022/11/07 03:55:55;;;;;;;2.45;1.08;;;13.20;95.70;;;;;;5073600;28;20335;-71
2022/11/07 03:58:22;;;;;;;3.55;1.27;;;13.20;95.70;;;;;;5091409;28;20406;-71
2022/11/07 04:00:47;;;;;;;4.40;1.30;;;13.20;95.80;;;;;;5091448;28;20454;-71
2022/11/07 04:03:13;;;;;;;3.38;1.30;;;13.10;95.90;;;;;;5091325;28;20039;-72
2022/11/07 04:05:39;;;;;;;4.63;1.23;;;13.10;96.00;;;;;;5091796;28;20123;-71
2022/11/07 04:08:05;;;;;;;3.97;1.15;;;13.10;95.90;;;;;;5091284;28;20101;-71
2022/11/07 04:10:30;;;;;;;3.70;1.38;;;13.20;95.90;;;;;;5091255;28;20051;-71
2022/11/07 04:18:27;;;;;;;5.38;1.65;;;13.10;96.10;;;;;;5091070;28;20464;-71
2022/11/07 04:20:52;;;;;;;6.63;1.08;;;13.20;96.20;;;;;;5090953;28;20031;-71
2022/11/07 04:23:18;;;;;;;4.80;0.93;;;13.10;95.90;;;;;;5091028;28;20054;-73
2022/11/07 04:28:28;;;;;;;4.50;1.38;;;13.20;96.00;;;;;;5091132;28;20090;-72
2022/11/07 04:30:53;;;;;;;1.83;0.85;;;13.20;96.00;;;;;;5091467;28;20373;-71
2022/11/07 04:33:19;;;;;;;10.18;1.25;;;13.10;96.10;;;;;;5091251;28;20071;-72
2022/11/07 04:35:45;;;;;;;4.82;1.33;;;13.20;96.00;;;;;;5091859;28;20037;-71
2022/11/07 04:38:10;;;;;;;2.30;1.00;;;13.20;96.00;;;;;;5073427;28;20070;-73
2022/11/07 04:40:36;;;;;;;5.22;1.10;;;13.10;96.10;;;;;;5090830;28;20413;-71
2022/11/07 04:43:07;;;;;;;4.45;1.08;;;13.10;96.20;;;;;;5090926;28;20040;-73
2022/11/07 04:45:37;;;;;;;2.50;1.05;;;13.10;96.20;;;;;;5091834;28;20105;-72
2022/11/07 04:48:03;;;;;;;4.07;1.13;;;13.10;96.20;;;;;;5091448;28;20024;-71
2022/11/07 04:50:29;;;;;;;5.43;1.67;;;13.20;96.10;;;;;;5091466;28;20104;-72
2022/11/07 04:52:55;;;;;;;7.13;1.30;;;13.10;96.30;;;;;;5091146;28;20032;-72
2022/11/07 04:55:24;;;;;;;5.80;1.10;;;13.20;96.20;;;;;;5090935;28;20493;-73
2022/11/07 04:57:50;;;;;;;7.05;1.17;;;13.20;96.20;;;;;;5091143;28;20336;-72
2022/11/07 05:00:16;;;;;;;4.10;1.10;;;13.10;96.20;;;;;;5091061;28;20024;-71
2022/11/07 05:02:42;;;;;;;3.42;0.95;;;13.10;96.20;;;;;;5091884;28;20177;-73
2022/11/07 05:05:08;;;;;;;2.28;0.75;;;13.10;96.30;;;;;;5091774;28;20509;-71
2022/11/07 05:07:34;;;;;;;3.10;1.20;;;13.10;96.20;;;;;;5090980;28;20174;-72
2022/11/07 05:10:00;;;;;;;7.03;1.23;;;13.20;96.20;;;;;;5091159;28;20027;-72
2022/11/07 05:12:25;;;;;;;2.20;0.95;;;13.20;96.40;;;;;;5090655;28;20056;-71
2022/11/07 05:14:51;;;;;;;3.83;1.35;;;13.20;96.30;;;;;;5090963;28;20032;-71
2022/11/07 05:17:17;;;;;;;6.88;1.40;;;13.30;96.30;;;;;;5090581;28;20032;-71
2022/11/07 05:19:42;;;;;;;3.55;1.25;;;13.20;96.40;;;;;;5090469;28;20032;-71
2022/11/07 05:24:53;;;;;;;2.70;1.10;;;13.20;96.40;;;;;;5090524;28;20039;-72
2022/11/07 05:27:20;;;;;;;3.40;0.90;;;13.20;96.50;;;;;;5090287;28;20028;-71
2022/11/07 05:29:46;;;;;;;3.85;1.15;;;13.20;96.50;;;;;;5091081;28;20095;-73
2022/11/07 05:32:13;;;;;;;3.75;1.20;;;13.20;96.30;;;;;;5090825;28;20372;-72
2022/11/07 05:34:39;;;;;;;3.75;1.05;;;13.20;96.50;;;;;;5093954;28;20516;-73
2022/11/07 05:37:09;;;;;;;3.20;1.30;;;13.20;96.50;;;;;;5093954;28;20055;-72
2022/11/07 05:39:35;;;;;;;2.55;0.80;;;13.20;96.70;;;;;;5076189;28;20028;-71
2022/11/07 05:42:01;;;;;;;4.93;1.10;;;13.20;96.70;;;;;;5093873;28;20093;-72
2022/11/07 05:44:27;;;;;;;3.92;0.90;;;13.20;96.70;;;;;;5094300;28;20032;-72
2022/11/07 05:46:54;;;;;;;4.75;1.15;;;13.20;96.80;;;;;;5076276;28;20028;-73
2022/11/07 05:49:20;;;;;;;3.72;1.20;;;13.20;96.90;;;;;;5093792;28;20028;-72
2022/11/07 05:51:45;;;;;;;5.78;1.30;;;13.20;96.90;;;;;;5094013;28;20032;-73
2022/11/07 05:54:11;;;;;;;2.60;1.13;;;13.20;96.80;;;;;;5093486;28;20030;-73
2022/11/07 05:56:37;;;;;;;8.43;1.20;;;13.30;96.90;;;;;;5076046;28;20374;-71
2022/11/07 05:59:03;;;;;;;5.03;1.00;;;13.30;97.20;;;;;;5093411;28;20042;-72
2022/11/07 06:01:29;;;;;;;2.40;1.23;;;13.20;96.90;;;;;;5093664;28;20028;-72
2022/11/07 06:03:55;;;;;;;3.92;1.30;;;13.20;97.00;;;;;;5093467;28;20100;-71
2022/11/07 06:06:20;;;;;;;4.70;1.00;;;13.20;97.00;;;;;;5097745;28;20376;-71
2022/11/07 06:08:46;;;;;;;3.75;1.33;;;13.30;97.00;;;;;;5094201;28;20342;-72
2022/11/07 06:11:12;;;;;;;6.80;1.38;;;13.30;96.80;;;;;;5093472;28;20032;-71
2022/11/07 06:13:38;;;;;;;3.53;1.02;;;13.40;96.80;;;;;;5093103;28;20079;-72
2022/11/07 06:16:04;;;;;;;5.72;1.17;;;13.30;96.80;;;;;;5093389;28;20035;-72
2022/11/07 06:18:30;;;;;;;5.00;1.10;;;13.40;96.80;;;;;;5093313;28;20024;-73
2022/11/07 06:20:59;;;;;;;4.22;1.17;;;13.30;96.80;;;;;;5093706;28;20338;-71
2022/11/07 06:23:25;;;;;;;4.13;1.13;;;13.30;96.70;;;;;;5093320;28;20128;-72
2022/11/07 06:25:51;;;;;;;10.05;1.27;;;13.40;96.70;;;;;;5093612;28;20081;-73
2022/11/07 06:28:17;;;;;;;4.53;1.30;;;13.30;96.70;;;;;;5093086;28;20028;-73
2022/11/07 06:30:43;;;;;;;3.97;0.98;;;13.30;96.80;;;;;;5092915;28;20032;-72
2022/11/07 06:33:14;;;;;;;1.80;0.90;;;13.30;96.70;;;;;;5092392;28;20020;-72
2022/11/07 06:35:40;;;;;;;1.23;0.90;;;13.30;97.00;;;;;;5092939;28;20023;-72
2022/11/07 06:38:11;;;;;;;4.65;1.50;;;13.30;96.80;;;;;;5074968;28;20024;-73
2022/11/07 06:40:38;;;;;;;7.35;3.45;;;13.30;96.70;;;;;;5074730;28;20028;-72
2022/11/07 06:43:16;;;;;;;3.92;1.10;;;13.30;96.70;;;;;;5073973;28;20036;-72
2022/11/07 06:45:41;;;;;;;;;;;13.30;96.70;;;;;;5074966;28;20055;-72
2022/11/07 06:48:08;;;;;;;4.85;1.13;;;13.30;96.70;;;;;;5074251;28;20024;-73
2022/11/07 06:50:34;;;;;;;9.68;2.30;;;13.40;96.70;;;;;;5092979;28;20453;-72
2022/11/07 06:53:05;;;;;;;8.18;1.65;;;13.30;96.80;;;;;;5074760;28;20115;-73
2022/11/07 06:55:33;;;;;;;4.75;1.30;;;13.40;96.80;;;;;;5092822;28;20078;-72
2022/11/07 06:57:59;;;;;;;6.15;1.40;;;13.30;96.70;;;;;;5092363;28;20028;-72
2022/11/07 07:00:30;;;;;;;5.53;1.42;;;13.40;96.70;;;;;;5092577;28;20073;-73
2022/11/07 07:02:56;;;;;;;8.65;2.53;;;13.30;96.70;;;;;;5093102;28;20035;-73
2022/11/07 07:05:22;;;;;;;6.25;2.97;;;13.40;96.70;;;;;;5074360;28;20491;-72
2022/11/07 07:07:48;;;;;;;4.85;1.42;;;13.40;96.70;;;;;;5074138;28;20038;-74
2022/11/07 07:10:14;;;;;;;10.70;1.20;;;13.30;96.70;;;;;;5092085;28;20020;-72
2022/11/07 07:12:40;;;;;;;6.28;1.60;;;13.40;96.70;;;;;;5074194;28;20047;-73
2022/11/07 07:15:07;;;;;;;12.85;1.42;;;13.40;96.60;;;;;;5093986;28;20111;-73
2022/11/07 07:17:32;;;;;;;6.05;1.17;;;13.40;96.60;;;;;;5092272;28;20173;-71
2022/11/07 07:19:58;;;;;;;16.77;5.97;;;13.40;96.60;;;;;;5091890;28;20103;-73
2022/11/07 07:22:24;;;;;;;6.65;2.53;;;13.50;96.50;;;;;;5074018;28;20035;-74
2022/11/07 07:24:52;;;;;;;2.67;0.95;;;13.40;96.50;;;;;;5091901;28;20533;-73
2022/11/07 07:27:19;;;;;;;6.57;1.27;;;13.50;96.60;;;;;;5091806;28;20032;-73
2022/11/07 07:29:46;;;;;;;5.15;1.40;;;13.50;96.50;;;;;;5092241;28;20023;-74
2022/11/07 07:32:11;;;;;;;6.55;1.67;;;13.40;96.50;;;;;;5092082;28;20050;-74
2022/11/07 07:34:37;;;;;;;7.85;1.33;;;13.50;96.50;;;;;;5094666;28;20036;-74
2022/11/07 07:37:03;;;;;;;4.18;0.90;;;13.50;96.50;;;;;;5074112;28;20024;-75
2022/11/07 07:39:29;;;;;;;6.18;1.20;;;13.50;96.60;;;;;;5092064;28;20035;-74
2022/11/07 07:41:55;;;;;;;6.50;1.20;;;13.60;96.60;;;;;;5092166;28;20028;-76
2022/11/07 07:44:21;;;;;;;4.35;1.17;;;13.60;96.50;;;;;;5091863;28;20489;-77
2022/11/07 07:46:47;;;;;;;5.15;1.00;;;13.60;96.60;;;;;;5091809;28;20028;-75
2022/11/07 07:49:13;;;;;;;3.50;1.30;;;13.60;96.50;;;;;;5091853;28;20115;-75
2022/11/07 07:51:38;;;;;;;4.72;1.23;;;13.60;96.50;;;;;;5091812;28;20035;-75
2022/11/07 07:54:04;;;;;;;3.22;1.02;;;13.70;96.50;;;;;;5091953;28;20012;-75
2022/11/07 07:56:30;;;;;;;6.15;1.33;;;13.70;96.50;;;;;;5091289;28;20017;-74
2022/11/07 07:58:56;;;;;;;5.55;1.60;;;13.80;96.40;;;;;;5073551;28;20085;-75
2022/11/07 08:01:21;;;;;;;3.88;1.20;;;13.80;96.40;;;;;;5092069;28;20032;-73
2022/11/07 08:03:48;;;;;;;3.17;1.15;;;13.80;96.40;;;;;;5091060;28;20148;-73
2022/11/07 08:06:14;;;;;;;4.75;1.27;;;13.80;96.30;;;;;;5091562;28;20020;-74
2022/11/07 08:08:39;;;;;;;5.32;1.42;;;13.90;96.30;;;;;;5091967;28;20035;-75
2022/11/07 08:11:09;;;;;;;4.80;1.20;;;13.90;96.30;;;;;;5092058;28;20374;-72
2022/11/07 08:13:35;;;;;;;7.53;1.30;;;13.90;96.20;;;;;;5091046;28;20035;-73
2022/11/07 08:16:04;;;;;;;9.13;2.53;;;13.90;96.20;;;;;;5091499;28;20097;-72
2022/11/07 08:18:30;;;;;;;6.65;1.30;;;14.00;96.20;;;;;;5073713;28;20035;-72
2022/11/07 08:20:56;;;;;;;8.98;1.30;;;14.10;96.20;;;;;;5091675;28;20016;-73
2022/11/07 08:23:23;;;;;;;5.88;1.30;;;14.10;96.00;;;;;;5091256;28;20474;-73
2022/11/07 08:25:49;;;;;;;3.90;0.90;;;14.10;96.00;;;;;;5090726;28;20035;-76
2022/11/07 08:28:15;;;;;;;4.35;1.13;;;14.10;96.00;;;;;;5073098;28;20042;-74
2022/11/07 08:30:41;;;;;;;2.45;1.15;;;14.10;96.00;;;;;;5073613;28;20433;-72
2022/11/07 08:33:08;;;;;;;5.05;1.25;;;14.10;96.00;;;;;;5090473;28;20027;-75
2022/11/07 08:35:33;;;;;;;9.68;1.73;;;14.10;96.00;;;;;;5073596;28;20051;-75
2022/11/07 08:38:02;;;;;;;6.72;1.23;;;14.10;95.90;;;;;;5073443;28;20024;-74
2022/11/07 08:40:28;;;;;;;9.65;3.78;;;14.10;95.90;;;;;;5073536;28;20033;-73
2022/11/07 08:42:59;;;;;;;7.63;1.67;;;14.10;95.90;;;;;;5090784;28;20034;-73
2022/11/07 08:45:24;;;;;;;4.25;1.40;;;14.10;95.90;;;;;;5090854;28;20063;-75
2022/11/07 08:47:54;;;;;;;4.43;1.20;;;14.10;95.90;;;;;;5091448;28;20047;-73
2022/11/07 08:50:20;;;;;;;7.30;1.45;;;14.10;95.90;;;;;;5073542;28;20358;-74
2022/11/07 08:52:46;;;;;;;3.25;1.38;;;14.10;95.90;;;;;;5090926;28;20028;-73
2022/11/07 08:55:11;;;;;;;6.15;1.50;;;14.10;95.90;;;;;;5091098;28;20093;-75
2022/11/07 08:57:37;;;;;;;5.00;0.98;;;14.10;95.90;;;;;;5091004;28;20032;-72
2022/11/07 09:00:04;;;;;;;9.45;1.80;;;14.20;96.00;;;;;;5090894;28;20560;-74
2022/11/07 09:02:30;;;;;;;6.00;1.00;;;14.20;95.90;;;;;;5073459;28;20024;-74
2022/11/07 09:04:56;;;;;;;3.95;1.08;;;14.20;95.80;;;;;;5090795;28;20028;-75
2022/11/07 09:07:22;;;;;;;4.28;1.08;;;14.20;95.80;;;;;;5093091;28;20488;-73
2022/11/07 09:09:47;;;;;;;6.43;1.25;;;14.30;95.80;;;;;;5094570;28;20032;-74
2022/11/07 09:12:13;;;;;;;6.38;1.15;;;14.30;95.80;;;;;;5094369;28;20087;-74
2022/11/07 09:14:39;;;;;;;3.17;1.42;;;14.30;95.80;;;;;;5094891;28;20082;-74
2022/11/07 09:17:06;;;;;;;8.60;1.50;;;14.30;95.80;;;;;;5094660;28;20046;-74
2022/11/07 09:19:31;;;;;;;8.95;1.60;;;14.30;95.80;;;;;;5094435;28;20028;-75
2022/11/07 09:21:57;;;;;;;3.75;1.33;;;14.30;95.80;;;;;;5094365;28;20432;-73
2022/11/07 09:24:22;;;;;;;5.50;1.50;;;14.40;95.80;;;;;;5094736;28;20031;-75
2022/11/07 09:26:48;;;;;;;6.57;1.20;;;14.30;95.70;;;;;;5094831;28;20028;-73
2022/11/07 09:29:14;;;;;;;8.88;2.30;;;14.40;95.80;;;;;;5094188;28;20350;-74
2022/11/07 09:31:39;;;;;;;6.40;2.33;;;14.40;95.80;;;;;;5094405;28;20028;-74
2022/11/07 09:34:06;;;;;;;7.32;1.50;;;14.40;95.70;;;;;;5075758;28;20028;-72
2022/11/07 09:36:32;;;;;;;6.25;1.15;;;14.30;95.60;;;;;;5094036;28;20038;-73
2022/11/07 09:38:59;;;;;;;6.50;1.20;;;14.40;95.80;;;;;;5094318;28;20032;-73
2022/11/07 09:41:48;;;;;;;6.07;1.38;;;14.40;95.70;;;;;;5076411;28;20024;-73
2022/11/07 09:44:42;;;;;;;4.80;1.40;;;14.40;95.70;;;;;;5076374;28;20020;-73
2022/11/07 09:47:13;;;;;;;7.93;1.48;;;14.50;95.70;;;;;;5093975;28;20025;-73
2022/11/07 09:49:51;;;;;;;5.85;1.65;;;14.50;95.70;;;;;;5094369;28;20025;-72
2022/11/07 09:52:36;;;;;;;10.40;2.15;;;14.50;95.90;;;;;;5076249;28;20028;-72
2022/11/07 09:55:21;;;;;;;8.73;2.08;;;14.50;95.70;;;;;;5093836;28;20465;-72
2022/11/07 09:57:49;;;;;;;8.88;1.55;;;14.50;95.70;;;;;;5075960;28;20304;-72
2022/11/07 10:00:17;;;;;;;4.00;1.65;;;14.60;95.70;;;;;;5093836;28;20031;-72
2022/11/07 10:02:47;;;;;;;6.93;1.88;;;14.60;95.60;;;;;;5094179;28;20027;-71
2022/11/07 10:05:58;;;;;;;8.15;1.92;;;14.60;95.60;;;;;;5093677;28;20036;-73
2022/11/07 10:08:32;;;;;;;4.13;1.50;;;14.70;95.70;;;;;;5066773;28;20032;-73
2022/11/07 10:11:02;;;;;;;8.80;2.10;;;14.70;95.50;;;;;;5093555;28;20036;-73
2022/11/07 10:13:40;;;;;;;6.75;1.75;;;14.70;95.70;;;;;;5093211;28;20044;-72
2022/11/07 10:16:18;;;;;;;5.65;1.70;;;14.70;95.70;;;;;;5093459;28;20507;-71
2022/11/07 10:18:59;;;;;;;4.00;1.73;;;14.80;95.70;;;;;;5092533;28;20059;-71
2022/11/07 10:21:36;;;;;;;7.78;1.40;;;14.80;95.60;;;;;;5093229;28;20020;-70
2022/11/07 10:24:24;;;;;;;6.65;2.20;;;14.80;95.60;;;;;;5093288;28;20028;-71
2022/11/07 10:26:50;;;;;;;4.22;1.23;;;14.90;95.60;;;;;;5075851;28;20033;-72
2022/11/07 10:29:20;;;;;;;11.77;1.92;;;14.90;95.60;;;;;;5075189;28;20036;-73
2022/11/07 10:32:26;;;;;;;5.50;1.40;;;14.90;95.60;;;;;;5093072;28;20036;-72
2022/11/07 10:35:13;;;;;;;6.28;1.50;;;14.90;95.60;;;;;;5074604;28;20503;-73
2022/11/07 10:37:39;;;;;;;13.07;5.07;;;15.00;95.60;;;;;;5093282;28;20086;-73
2022/11/07 10:40:17;;;;;;;5.78;2.22;;;15.00;95.60;;;;;;5074989;28;20032;-72
2022/11/07 10:42:44;;;;;;;4.85;2.03;;;15.00;95.60;;;;;;5074782;28;20385;-73
2022/11/07 10:45:15;;;;;;;6.75;1.75;;;15.10;95.60;;;;;;5093337;28;20024;-73
2022/11/07 10:47:41;;;;;;;10.63;2.00;;;15.00;95.60;;;;;;5093198;28;20159;-72
2022/11/07 10:50:37;;;;;;;9.02;1.95;;;15.00;95.60;;;;;;5092611;28;20105;-74
2022/11/07 10:53:08;;;;;;;10.52;2.15;;;15.10;95.60;;;;;;5075921;28;20491;-72
2022/11/07 10:55:45;;;;;;;13.95;2.38;;;15.10;95.70;;;;;;5092489;28;20024;-71
2022/11/07 10:58:34;;;;;;;7.43;1.65;;;15.10;95.60;;;;;;5074926;28;20021;-72
2022/11/07 11:01:03;;;;;;;15.35;2.17;;;15.20;95.60;;;;;;5092227;28;20369;-72
2022/11/07 11:03:48;;;;;;;15.90;2.35;;;15.20;95.50;;;;;;5092060;28;20040;-71
2022/11/07 11:06:16;;;;;;;12.00;2.53;;;15.20;95.50;;;;;;5092354;28;20488;-70
2022/11/07 11:08:44;;;;;;;10.07;2.28;;;15.20;95.50;;;;;;5093082;28;20051;-71
2022/11/07 11:11:20;;;;;;;10.40;3.17;;;15.30;95.50;;;;;;5074818;28;20035;-71
2022/11/07 11:13:46;;;;;;;8.73;1.77;;;15.30;95.40;;;;;;5092008;28;20093;-71
2022/11/07 11:16:23;;;;;;;10.27;2.92;;;15.30;95.40;;;;;;5091843;28;20564;-71
2022/11/07 11:18:51;;;;;;;6.80;2.92;;;15.30;95.40;;;;;;5094394;28;20028;-72
2022/11/07 11:21:17;;;;;;;10.95;1.75;;;15.40;95.40;;;;;;5096695;28;20019;-73
2022/11/07 11:23:44;;;;;;;16.60;2.35;;;15.40;95.30;;;;;;5092373;28;20124;-72
2022/11/07 11:26:25;;;;;;;15.77;2.35;;;15.40;95.30;;;;;;5074657;28;20036;-72
2022/11/07 11:29:00;;;;;;;10.35;2.42;;;15.50;95.30;;;;;;5091959;28;20040;-72
2022/11/07 11:31:38;;;;;;;12.20;2.83;;;15.50;95.20;;;;;;5091012;28;20086;-72
2022/11/07 11:34:38;;;;;;;10.02;1.80;;;15.50;95.40;;;;;;5073970;28;20032;-71
2022/11/07 11:37:18;;;;;;;9.45;2.40;;;15.60;95.30;;;;;;5057882;28;20024;-73
2022/11/07 11:40:04;;;;;;;7.97;2.80;;;15.80;95.10;;;;;;5091587;28;20035;-71
2022/11/07 11:42:37;;;;;;;9.52;2.22;;;15.80;95.00;;;;;;5073586;28;20027;-70
2022/11/07 11:45:18;;;;;;;9.52;1.58;;;15.90;95.00;;;;;;5073736;28;20081;-70
2022/11/07 11:47:51;;;;;;;6.45;1.77;;;15.90;95.00;;;;;;5092007;28;20027;-72
2022/11/07 11:50:26;;;;;;;7.30;1.90;;;16.00;95.00;;;;;;5091580;28;20028;-72
2022/11/07 11:52:52;;;;;;;9.68;1.40;;;16.20;95.20;;;;;;5091415;28;20034;-72
2022/11/07 11:55:22;;;;;;;6.85;1.85;;;16.30;94.90;;;;;;5091688;28;20040;-71
2022/11/07 11:58:06;;;;;;;6.60;1.80;;;16.30;94.70;;;;;;5091152;28;20111;-70
2022/11/07 12:00:43;;;;;;;12.48;1.85;;;16.20;94.50;;;;;;5073501;28;20430;-71
2022/11/07 12:03:11;;;;;;;10.88;1.77;;;16.30;94.40;;;;;;5091323;28;20515;-69
2022/11/07 12:06:00;;;;;;;11.23;1.77;;;16.20;94.50;;;;;;5091816;28;20080;-71
2022/11/07 12:08:38;;;;;;;6.15;1.33;;;16.10;94.40;;;;;;5091279;28;20032;-71
2022/11/07 12:11:22;;;;;;;8.48;1.83;;;16.20;94.60;;;;;;5091189;28;20024;-72
2022/11/07 12:13:56;;;;;;;12.50;2.15;;;16.20;94.30;;;;;;5091213;28;20097;-72
2022/11/07 12:16:37;;;;;;;8.13;1.92;;;16.30;94.40;;;;;;5091420;28;20021;-71
2022/11/07 12:19:38;;;;;;;5.72;1.55;;;16.30;94.30;;;;;;5091215;28;20028;-73
2022/11/07 12:22:23;;;;;;;5.13;1.45;;;16.40;94.30;;;;;;5090922;28;20021;-71
2022/11/07 12:25:01;;;;;;;6.45;1.73;;;16.40;94.50;;;;;;5091224;28;20107;-72
2022/11/07 12:27:48;;;;;;;14.27;2.50;;;16.40;94.40;;;;;;5091386;28;20020;-72
2022/11/07 12:30:16;;;;;;;8.98;2.20;;;16.40;94.40;;;;;;5090888;28;20020;-72
2022/11/07 12:33:21;;;;;;;8.18;1.73;;;16.40;94.30;;;;;;5091645;28;20016;-73
2022/11/07 12:36:16;;;;;;;7.80;1.90;;;16.40;94.50;;;;;;5091451;28;20092;-73
2022/11/07 12:39:00;;;;;;;11.50;1.90;;;16.40;94.60;;;;;;5082032;28;20043;-73
2022/11/07 12:41:42;;;;;;;6.35;1.25;;;16.30;94.20;;;;;;5092437;28;20533;-74
2022/11/07 12:44:23;;;;;;;7.47;2.10;;;16.30;94.20;;;;;;5095357;28;20596;-73
2022/11/07 12:46:56;;;;;;;12.50;2.20;;;16.30;94.40;;;;;;5095351;28;20040;-74
2022/11/07 12:49:44;;;;;;;9.32;2.95;;;16.40;94.50;;;;;;5077357;28;20036;-76
2022/11/07 12:52:16;;;;;;;7.60;1.70;;;16.50;94.40;;;;;;5094046;28;20027;-72
2022/11/07 12:55:20;;;;;;;8.25;1.65;;;16.40;94.40;;;;;;5077365;28;20503;-73
2022/11/07 12:57:49;;;;;;;10.98;1.98;;;16.40;94.40;;;;;;5094568;28;20036;-73
2022/11/07 13:00:23;;;;;;;9.02;2.10;;;16.40;94.40;;;;;;5094754;28;20177;-73
2022/11/07 13:02:52;;;;;;;4.35;1.60;;;16.40;94.30;;;;;;5095210;28;20024;-74
2022/11/07 13:06:14;;;;;;;9.27;1.95;;;16.40;94.40;;;;;;5094724;28;20020;-72
2022/11/07 13:08:49;;;;;;;3.85;1.30;;;16.40;94.40;;;;;;5032595;28;20041;-73
2022/11/07 13:11:27;;;;;;;13.52;2.67;;;16.40;94.40;;;;;;5068562;28;20058;-74
2022/11/07 13:14:37;;;;;;;6.97;2.42;;;16.30;94.40;;;;;;5076249;28;20453;-73